Time;durP1;ratioP1;P1;durP2;ratioP2;P2;SDS_P1;SDS_P2;PMS_P1;PMS_P2;Temp;Humidity;BMP_temperature;BMP_pressure;BME280_temperature;BME280_humidity;BME280_pressure;Samples;Min_cycle;Max_cycle;Signal;HPM_P1;HPM_P2
2022/06/30 00:01:03;;;;;;;10.13;8.10;;;20.30;99.90;;;;;;5018310;28;20541;-83
2022/06/30 00:03:30;;;;;;;11.63;8.60;;;20.20;99.90;;;;;;5021569;28;20554;-83
2022/06/30 00:05:58;;;;;;;9.60;8.70;;;20.20;99.90;;;;;;5026520;28;20466;-81
2022/06/30 00:08:25;;;;;;;9.37;8.37;;;20.20;99.90;;;;;;5034716;28;20490;-82
2022/06/30 00:10:52;;;;;;;10.00;8.97;;;20.20;99.90;;;;;;5023252;28;20492;-83
2022/06/30 00:13:19;;;;;;;8.30;7.50;;;20.20;99.90;;;;;;5023424;28;20513;-83
2022/06/30 00:15:46;;;;;;;9.00;8.17;;;20.10;99.90;;;;;;5024412;28;20481;-81
2022/06/30 00:18:13;;;;;;;9.17;8.27;;;20.10;99.90;;;;;;5023786;28;20473;-83
2022/06/30 00:20:40;;;;;;;10.10;9.03;;;20.10;99.90;;;;;;5023205;28;20496;-83
2022/06/30 00:23:08;;;;;;;9.40;8.53;;;20.10;99.90;;;;;;5021903;28;20537;-84
2022/06/30 00:25:36;;;;;;;9.47;8.47;;;20.00;99.90;;;;;;5023643;28;20478;-82
2022/06/30 00:28:04;;;;;;;8.73;7.93;;;20.00;99.90;;;;;;5023630;28;20497;-83
2022/06/30 00:30:30;;;;;;;10.77;8.87;;;20.00;99.90;;;;;;5023688;28;20840;-82
2022/06/30 00:32:57;;;;;;;10.07;9.07;;;20.00;99.90;;;;;;5023659;28;20481;-82
2022/06/30 00:35:24;;;;;;;9.27;8.37;;;19.90;99.90;;;;;;5024200;28;20477;-82
2022/06/30 00:37:51;;;;;;;9.27;8.40;;;19.90;99.90;;;;;;5023336;28;20469;-81
2022/06/30 00:40:20;;;;;;;9.43;8.30;;;19.90;99.90;;;;;;5022415;28;20513;-83
2022/06/30 00:42:46;;;;;;;10.50;9.50;;;19.90;99.90;;;;;;5022289;28;20483;-82
2022/06/30 00:45:13;;;;;;;10.03;9.03;;;19.90;99.90;;;;;;5022629;28;20470;-83
2022/06/30 00:47:41;;;;;;;10.57;9.57;;;19.80;99.90;;;;;;5048567;22;21956;-81
2022/06/30 00:50:09;;;;;;;12.47;9.33;;;19.80;99.90;;;;;;5019062;28;20540;-81
2022/06/30 00:52:37;;;;;;;11.67;10.47;;;19.80;99.90;;;;;;5031814;28;20476;-81
2022/06/30 00:55:06;;;;;;;10.57;9.47;;;19.80;99.90;;;;;;5021062;28;21047;-81
2022/06/30 00:57:35;;;;;;;11.03;9.00;;;19.80;99.90;;;;;;5018440;28;20456;-81
2022/06/30 01:00:04;;;;;;;10.30;9.20;;;19.70;99.90;;;;;;5001079;28;20519;-82
2022/06/30 01:02:33;;;;;;;13.07;10.20;;;19.70;99.90;;;;;;4999437;28;20546;-82
2022/06/30 01:05:00;;;;;;;10.60;9.50;;;19.70;99.90;;;;;;5014551;28;20547;-83
2022/06/30 01:07:28;;;;;;;11.57;10.37;;;19.70;99.90;;;;;;5015907;28;20482;-80
2022/06/30 01:12:44;;;;;;;12.83;10.70;;;19.60;99.90;;;;;;5007151;28;20452;-81
2022/06/30 01:15:12;;;;;;;11.43;10.23;;;19.60;99.90;;;;;;4996066;28;20537;-80
2022/06/30 01:17:39;;;;;;;12.43;11.13;;;19.60;99.90;;;;;;4996164;28;20548;-80
2022/06/30 01:20:07;;;;;;;11.97;10.87;;;19.50;99.90;;;;;;4995678;28;21063;-81
2022/06/30 01:22:35;;;;;;;11.57;10.40;;;19.50;99.90;;;;;;4995459;28;20459;-80
2022/06/30 01:25:02;;;;;;;12.37;11.03;;;19.50;99.90;;;;;;4997980;28;20547;-82
2022/06/30 01:27:29;;;;;;;13.00;11.40;;;19.50;99.90;;;;;;5000058;28;20947;-81
2022/06/30 01:29:57;;;;;;;12.40;11.10;;;19.40;99.90;;;;;;4998828;28;20492;-81
2022/06/30 01:32:25;;;;;;;12.80;11.60;;;19.40;99.90;;;;;;4999884;28;20460;-82
2022/06/30 01:34:52;;;;;;;12.97;10.93;;;19.40;99.90;;;;;;5000097;28;20449;-81
2022/06/30 01:37:18;;;;;;;12.53;11.33;;;19.40;99.90;;;;;;5000847;28;20833;-81
2022/06/30 01:39:47;;;;;;;15.63;10.43;;;19.40;99.90;;;;;;5001099;28;20538;-80
2022/06/30 01:42:14;;;;;;;11.60;10.50;;;19.40;99.90;;;;;;5001021;28;20566;-81
2022/06/30 01:44:41;;;;;;;12.60;11.13;;;19.30;99.90;;;;;;4998424;28;20486;-82
2022/06/30 01:47:09;;;;;;;11.63;10.23;;;19.30;99.90;;;;;;5000126;28;20486;-83
2022/06/30 01:49:36;;;;;;;10.90;9.80;;;19.30;99.90;;;;;;5000267;28;20585;-81
2022/06/30 01:52:03;;;;;;;12.20;10.27;;;19.30;99.90;;;;;;5000552;28;20484;-81
2022/06/30 01:54:30;;;;;;;11.83;10.73;;;19.30;99.90;;;;;;5010711;28;20489;-81
2022/06/30 01:56:58;;;;;;;10.60;9.00;;;19.30;99.90;;;;;;5000465;28;21045;-81
2022/06/30 01:59:25;;;;;;;11.37;10.17;;;19.30;99.90;;;;;;4998592;28;20512;-79
2022/06/30 02:01:52;;;;;;;12.23;11.03;;;19.20;99.90;;;;;;5018016;28;20901;-80
2022/06/30 02:07:04;;;;;;;15.27;10.17;;;19.20;99.90;;;;;;5000461;28;20443;-82
2022/06/30 02:09:31;;;;;;;11.50;10.40;;;19.20;99.90;;;;;;4998606;28;21060;-83
2022/06/30 02:14:40;;;;;;;12.87;11.53;;;19.10;99.90;;;;;;4997421;28;20458;-83
2022/06/30 02:17:06;;;;;;;10.40;9.43;;;19.10;99.90;;;;;;4997947;28;20462;-83
2022/06/30 02:19:33;;;;;;;10.83;9.73;;;19.10;99.90;;;;;;5000983;28;20490;-83
2022/06/30 02:22:00;;;;;;;13.90;10.63;;;19.00;99.90;;;;;;5002286;28;20975;-82
2022/06/30 02:24:27;;;;;;;12.10;10.20;;;19.00;99.90;;;;;;5002311;28;20478;-82
2022/06/30 02:26:54;;;;;;;13.87;11.97;;;19.00;99.90;;;;;;5002908;28;20470;-82
2022/06/30 02:29:22;;;;;;;13.87;11.00;;;19.00;99.90;;;;;;5001303;28;21030;-83
2022/06/30 02:31:49;;;;;;;10.90;9.90;;;18.90;99.90;;;;;;4997600;28;20566;-83
2022/06/30 02:34:16;;;;;;;14.93;10.57;;;19.00;99.90;;;;;;4996019;28;20895;-83
2022/06/30 02:36:43;;;;;;;12.03;10.83;;;18.90;99.90;;;;;;4997554;28;21032;-81
2022/06/30 02:39:10;;;;;;;12.37;10.47;;;18.90;99.90;;;;;;4997185;28;20476;-80
2022/06/30 02:41:37;;;;;;;12.20;10.90;;;18.90;99.90;;;;;;4996866;28;20538;-82
2022/06/30 02:44:04;;;;;;;12.50;10.20;;;18.90;99.90;;;;;;4996421;28;20454;-82
2022/06/30 02:46:32;;;;;;;12.80;11.40;;;18.80;99.90;;;;;;4997961;28;20510;-82
2022/06/30 02:48:59;;;;;;;12.60;11.13;;;18.80;99.90;;;;;;5001496;28;20504;-81
2022/06/30 02:51:26;;;;;;;11.87;10.63;;;18.80;99.90;;;;;;5000827;28;20561;-80
2022/06/30 02:53:53;;;;;;;12.67;11.40;;;18.80;99.90;;;;;;4999598;28;20803;-80
2022/06/30 02:56:20;;;;;;;12.60;10.70;;;18.80;99.90;;;;;;5000216;28;20460;-84
2022/06/30 02:58:47;;;;;;;15.00;11.90;;;18.80;99.90;;;;;;4992671;28;20479;-84
2022/06/30 03:01:14;;;;;;;11.73;10.50;;;18.80;99.90;;;;;;4993185;28;20459;-84
2022/06/30 03:03:43;;;;;;;12.00;10.70;;;18.80;99.90;;;;;;4997447;28;20493;-82
2022/06/30 03:06:09;;;;;;;11.20;10.10;;;18.70;99.90;;;;;;4998723;28;20529;-81
2022/06/30 03:08:36;;;;;;;11.30;10.20;;;18.70;99.90;;;;;;4998375;28;20527;-83
2022/06/30 03:11:03;;;;;;;12.57;11.30;;;18.70;99.90;;;;;;4998120;28;20471;-83
2022/06/30 03:13:30;;;;;;;12.30;11.00;;;18.70;99.90;;;;;;4997266;28;20466;-84
2022/06/30 03:15:57;;;;;;;11.70;10.50;;;18.70;99.90;;;;;;4998858;28;20547;-82
2022/06/30 03:18:24;;;;;;;12.77;11.13;;;18.70;99.90;;;;;;4998547;28;20505;-81
2022/06/30 03:20:52;;;;;;;12.80;11.60;;;18.70;99.90;;;;;;4997461;28;20454;-83
2022/06/30 03:23:19;;;;;;;12.53;11.23;;;18.60;99.90;;;;;;4994971;28;20577;-83
2022/06/30 03:25:45;;;;;;;15.23;11.67;;;18.70;99.90;;;;;;4995368;28;20560;-84
2022/06/30 03:28:13;;;;;;;12.40;11.10;;;18.60;99.90;;;;;;4994735;28;20551;-83
2022/06/30 03:30:41;;;;;;;12.97;11.67;;;18.60;99.90;;;;;;4996800;28;20464;-84
2022/06/30 03:33:08;;;;;;;14.20;11.93;;;18.60;99.90;;;;;;5001163;28;20455;-83
2022/06/30 03:35:35;;;;;;;13.37;11.80;;;18.60;99.90;;;;;;5002401;28;20459;-82
2022/06/30 03:38:04;;;;;;;13.37;11.97;;;18.60;99.90;;;;;;5002091;28;20476;-84
2022/06/30 03:40:31;;;;;;;12.40;11.20;;;18.60;99.90;;;;;;4999354;28;20529;-82
2022/06/30 03:42:58;;;;;;;12.53;11.33;;;18.60;99.90;;;;;;4998524;28;20980;-82
2022/06/30 03:45:25;;;;;;;11.23;10.03;;;18.70;99.90;;;;;;4998158;28;20484;-82
2022/06/30 03:47:52;;;;;;;12.47;11.17;;;18.60;99.90;;;;;;5002490;28;20552;-85
2022/06/30 03:50:19;;;;;;;12.67;11.50;;;18.70;99.90;;;;;;5003435;28;20536;-82
2022/06/30 03:52:46;;;;;;;13.60;12.27;;;18.70;99.90;;;;;;5002659;28;20489;-84
2022/06/30 03:55:14;;;;;;;13.77;11.90;;;18.70;99.90;;;;;;4998574;28;20878;-81
2022/06/30 03:57:41;;;;;;;12.87;11.57;;;18.70;99.90;;;;;;4998604;28;20499;-80
2022/06/30 04:00:10;;;;;;;14.40;11.60;;;18.70;99.90;;;;;;5007325;28;20453;-81
2022/06/30 04:02:36;;;;;;;12.57;11.37;;;18.70;99.90;;;;;;5008994;28;20476;-81
2022/06/30 04:05:04;;;;;;;13.17;11.40;;;18.70;99.90;;;;;;5008318;28;20479;-80
2022/06/30 04:07:31;;;;;;;15.20;13.80;;;18.70;99.90;;;;;;4987304;28;21008;-80
2022/06/30 04:09:58;;;;;;;12.83;11.10;;;18.70;99.90;;;;;;4998952;28;20523;-81
2022/06/30 04:12:26;;;;;;;13.10;11.80;;;18.70;99.90;;;;;;5006226;28;20508;-83
2022/06/30 04:14:53;;;;;;;13.40;11.90;;;18.70;99.90;;;;;;5006106;28;20462;-83
2022/06/30 04:17:20;;;;;;;12.53;11.23;;;18.80;99.90;;;;;;5006266;28;20465;-83
2022/06/30 04:19:47;;;;;;;12.60;11.30;;;18.80;99.90;;;;;;5006106;28;20457;-82
2022/06/30 04:22:14;;;;;;;13.03;11.73;;;18.80;99.90;;;;;;5007308;28;20510;-83
2022/06/30 04:24:40;;;;;;;13.30;12.00;;;18.90;99.90;;;;;;5004858;28;20899;-82
2022/06/30 04:27:07;;;;;;;13.47;11.63;;;18.90;99.90;;;;;;5007269;28;20477;-82
2022/06/30 04:29:36;;;;;;;14.03;12.67;;;19.00;99.90;;;;;;5008662;28;20549;-84
2022/06/30 04:34:47;;;;;;;14.00;12.53;;;19.10;99.90;;;;;;5011736;28;20437;-84
2022/06/30 04:37:15;;;;;;;13.27;11.97;;;19.10;99.90;;;;;;5015483;28;20524;-83
2022/06/30 04:39:42;;;;;;;13.13;11.83;;;19.20;99.90;;;;;;5015943;28;20481;-84
2022/06/30 04:42:08;;;;;;;12.83;11.60;;;19.30;99.90;;;;;;5005148;28;20855;-82
2022/06/30 04:44:36;;;;;;;14.10;12.60;;;19.30;99.90;;;;;;5007066;28;20450;-82
2022/06/30 04:47:03;;;;;;;13.33;11.20;;;19.30;99.90;;;;;;5008610;28;20585;-82
2022/06/30 04:49:30;;;;;;;13.80;12.40;;;19.40;99.90;;;;;;5008600;28;20500;-81
2022/06/30 04:51:57;;;;;;;14.20;11.40;;;19.40;99.90;;;;;;5009855;28;20438;-81
2022/06/30 04:54:24;;;;;;;13.07;11.63;;;19.50;99.90;;;;;;5008710;28;20538;-81
2022/06/30 04:56:52;;;;;;;16.80;11.67;;;19.60;99.90;;;;;;5009059;28;20545;-83
2022/06/30 04:59:19;;;;;;;12.93;11.67;;;19.60;99.90;;;;;;5008610;28;20474;-82
2022/06/30 05:01:47;;;;;;;12.30;11.00;;;19.70;99.90;;;;;;5009692;28;20487;-82
2022/06/30 05:04:14;;;;;;;12.63;11.43;;;19.70;99.90;;;;;;5007887;28;20549;-82
2022/06/30 05:06:41;;;;;;;13.33;11.93;;;19.80;99.90;;;;;;5008676;28;20970;-82
2022/06/30 05:09:08;;;;;;;13.23;11.93;;;19.80;99.90;;;;;;5008023;28;20548;-82
2022/06/30 05:11:35;;;;;;;13.60;12.17;;;19.90;99.90;;;;;;5008412;28;20439;-82
2022/06/30 05:14:02;;;;;;;13.70;12.23;;;19.90;99.90;;;;;;5006742;28;20450;-82
2022/06/30 05:16:29;;;;;;;14.10;12.70;;;20.00;99.90;;;;;;5008084;28;20454;-82
2022/06/30 05:18:57;;;;;;;13.97;12.57;;;20.10;99.90;;;;;;5009714;28;20498;-81
2022/06/30 05:21:24;;;;;;;12.37;10.90;;;20.10;99.90;;;;;;5009581;28;20491;-83
2022/06/30 05:26:31;;;;;;;13.60;12.27;;;20.30;99.90;;;;;;5010815;28;20446;-83
2022/06/30 05:28:58;;;;;;;12.77;11.47;;;20.40;99.90;;;;;;5018179;28;20481;-83
2022/06/30 05:31:25;;;;;;;13.53;12.20;;;20.40;99.90;;;;;;5017972;28;20522;-82
2022/06/30 05:33:52;;;;;;;13.90;11.60;;;20.50;99.90;;;;;;5017627;28;20439;-83
2022/06/30 05:36:45;;;;;;;12.33;11.13;;;20.50;99.90;;;;;;5011315;28;20447;-84
2022/06/30 05:39:12;;;;;;;12.70;11.50;;;20.60;99.90;;;;;;5007695;28;20550;-83
2022/06/30 05:41:39;;;;;;;14.13;11.43;;;20.70;99.90;;;;;;5028045;28;20438;-83
2022/06/30 05:44:06;;;;;;;13.30;12.00;;;20.80;99.90;;;;;;5017608;28;20517;-84
2022/06/30 05:46:33;;;;;;;12.67;11.47;;;20.90;99.90;;;;;;5023528;28;20450;-83
2022/06/30 05:49:00;;;;;;;13.30;12.00;;;20.90;99.90;;;;;;5028877;28;20925;-83
2022/06/30 05:51:27;;;;;;;11.87;10.67;;;21.00;99.90;;;;;;5021853;28;20466;-81
2022/06/30 05:53:55;;;;;;;11.30;10.20;;;21.10;99.90;;;;;;5010496;28;20447;-81
2022/06/30 05:56:22;;;;;;;15.07;13.43;;;21.10;99.90;;;;;;5009151;28;20486;-81
2022/06/30 05:58:49;;;;;;;12.87;11.30;;;21.20;99.90;;;;;;5008942;28;20467;-81
2022/06/30 06:01:16;;;;;;;14.70;12.60;;;21.30;99.90;;;;;;5018547;28;20442;-81
2022/06/30 06:03:43;;;;;;;13.10;11.70;;;21.40;99.90;;;;;;5011725;28;20474;-80
2022/06/30 06:06:09;;;;;;;12.70;11.50;;;21.50;99.90;;;;;;5008915;28;20502;-81
2022/06/30 06:08:36;;;;;;;12.80;11.30;;;21.60;99.90;;;;;;5009710;28;20521;-81
2022/06/30 06:11:05;;;;;;;13.47;10.43;;;21.60;99.90;;;;;;5009923;28;20482;-81
2022/06/30 06:13:31;;;;;;;12.03;10.83;;;21.70;99.90;;;;;;5008159;28;20474;-81
2022/06/30 06:15:58;;;;;;;12.40;11.30;;;21.80;99.90;;;;;;5007451;28;20490;-82
2022/06/30 06:18:25;;;;;;;12.80;11.57;;;21.90;99.90;;;;;;5008343;28;20497;-81
2022/06/30 06:20:52;;;;;;;12.23;11.03;;;22.00;99.90;;;;;;5007785;28;20482;-81
2022/06/30 06:23:19;;;;;;;12.40;11.17;;;22.00;99.90;;;;;;5011486;28;20486;-81
2022/06/30 06:25:46;;;;;;;12.67;11.47;;;22.10;99.90;;;;;;4993144;28;20483;-81
2022/06/30 06:30:59;;;;;;;12.13;10.83;;;22.30;99.90;;;;;;5008053;28;20521;-81
2022/06/30 06:33:26;;;;;;;12.90;11.37;;;22.40;99.90;;;;;;5007033;28;20458;-81
2022/06/30 06:35:52;;;;;;;10.87;9.20;;;22.50;99.90;;;;;;5005915;28;20454;-80
2022/06/30 06:38:19;;;;;;;11.03;9.73;;;22.60;99.90;;;;;;5004710;28;20494;-82
2022/06/30 06:40:46;;;;;;;10.30;9.17;;;22.70;99.90;;;;;;5015317;28;20489;-80
2022/06/30 06:43:14;;;;;;;10.00;9.07;;;22.80;99.90;;;;;;5010643;28;20497;-81
2022/06/30 06:45:41;;;;;;;9.57;8.63;;;22.90;99.90;;;;;;5012043;28;20478;-81
2022/06/30 06:48:08;;;;;;;9.27;8.37;;;23.00;99.90;;;;;;5010344;28;20510;-80
2022/06/30 06:50:35;;;;;;;10.07;9.07;;;23.10;99.90;;;;;;5006296;28;20524;-81
2022/06/30 06:53:03;;;;;;;9.20;8.27;;;23.20;99.90;;;;;;5001943;28;20514;-82
2022/06/30 06:55:30;;;;;;;8.63;7.73;;;23.30;99.90;;;;;;5001922;28;20483;-82
2022/06/30 06:57:57;;;;;;;8.13;7.40;;;23.40;99.90;;;;;;5001529;28;20510;-81
2022/06/30 07:00:25;;;;;;;8.53;7.73;;;23.50;99.90;;;;;;5003925;28;20458;-81
2022/06/30 07:02:52;;;;;;;8.20;7.40;;;23.50;99.90;;;;;;5004728;28;20462;-82
2022/06/30 07:05:19;;;;;;;10.07;7.77;;;23.60;99.90;;;;;;5016845;28;20454;-80
2022/06/30 07:07:46;;;;;;;7.80;7.00;;;23.70;99.90;;;;;;5016875;28;20477;-80
2022/06/30 07:10:14;;;;;;;7.73;6.93;;;23.80;99.90;;;;;;5008291;28;20491;-80
2022/06/30 07:12:41;;;;;;;7.27;6.57;;;23.90;99.90;;;;;;5008729;28;20454;-81
2022/06/30 07:15:10;;;;;;;7.40;6.30;;;23.90;99.90;;;;;;5018357;28;20477;-82
2022/06/30 07:17:38;;;;;;;6.90;6.30;;;24.00;99.90;;;;;;5019930;28;20449;-82
2022/06/30 07:20:06;;;;;;;6.90;6.20;;;24.10;99.90;;;;;;5010123;28;20462;-80
2022/06/30 07:22:34;;;;;;;7.40;6.70;;;24.20;99.90;;;;;;5009791;28;20481;-82
2022/06/30 07:25:01;;;;;;;9.70;5.90;;;24.30;99.90;;;;;;5007632;28;20965;-81
2022/06/30 07:27:29;;;;;;;7.20;6.50;;;24.40;99.90;;;;;;5001114;28;20462;-81
2022/06/30 07:29:56;;;;;;;7.57;6.20;;;24.50;99.90;;;;;;5009543;28;20497;-80
2022/06/30 07:32:23;;;;;;;5.97;5.37;;;24.60;99.90;;;;;;5004366;28;20498;-80
2022/06/30 07:34:51;;;;;;;8.17;6.33;;;24.60;99.90;;;;;;5011334;28;20453;-80
2022/06/30 07:37:18;;;;;;;7.10;4.93;;;24.70;99.90;;;;;;5013402;28;20505;-81
2022/06/30 07:39:45;;;;;;;7.70;4.37;;;24.80;99.90;;;;;;5006718;28;20495;-79
2022/06/30 07:42:12;;;;;;;5.43;4.30;;;24.90;99.90;;;;;;5014930;28;20487;-80
2022/06/30 07:44:40;;;;;;;5.47;4.50;;;25.00;99.90;;;;;;5006628;28;20879;-80
2022/06/30 07:47:07;;;;;;;4.80;4.03;;;25.00;99.90;;;;;;5008016;28;20511;-80
2022/06/30 07:49:38;;;;;;;5.93;5.33;;;25.20;99.90;;;;;;5012605;28;20494;-78
2022/06/30 07:52:06;;;;;;;6.20;3.80;;;25.30;99.90;;;;;;5007124;28;20542;-81
2022/06/30 07:54:33;;;;;;;5.07;4.10;;;25.40;99.90;;;;;;5008504;28;20459;-81
2022/06/30 07:57:00;;;;;;;12.53;4.80;;;25.50;99.90;;;;;;5009716;28;20454;-81
2022/06/30 07:59:27;;;;;;;4.73;3.97;;;25.50;99.90;;;;;;5017014;28;20454;-82
2022/06/30 08:01:54;;;;;;;4.23;3.80;;;25.60;99.90;;;;;;5020014;28;20442;-83
2022/06/30 08:04:21;;;;;;;4.17;3.47;;;25.60;99.90;;;;;;5016657;28;20514;-80
2022/06/30 08:06:48;;;;;;;5.00;3.70;;;25.80;99.90;;;;;;5010181;28;20796;-81
2022/06/30 08:09:16;;;;;;;7.53;4.03;;;25.90;99.90;;;;;;5020558;28;20473;-82
2022/06/30 08:11:43;;;;;;;4.70;3.50;;;26.00;99.90;;;;;;5013638;28;20497;-80
2022/06/30 08:14:10;;;;;;;4.27;3.70;;;26.10;99.90;;;;;;5019853;28;20434;-80
2022/06/30 08:16:37;;;;;;;5.87;3.73;;;26.20;99.90;;;;;;5007355;28;20486;-80
2022/06/30 08:19:04;;;;;;;3.90;2.90;;;26.40;99.90;;;;;;5005275;28;20474;-81
2022/06/30 08:21:31;;;;;;;4.40;2.43;;;26.40;99.90;;;;;;5006781;28;20443;-80
2022/06/30 08:23:58;;;;;;;4.97;3.00;;;26.60;99.90;;;;;;5006169;28;20485;-79
2022/06/30 08:26:26;;;;;;;4.43;3.50;;;26.70;99.90;;;;;;5009119;28;20458;-78
2022/06/30 08:28:53;;;;;;;4.63;3.20;;;26.80;99.90;;;;;;5007495;28;20845;-79
2022/06/30 08:31:20;;;;;;;4.27;3.47;;;26.90;99.90;;;;;;5007833;28;20614;-81
2022/06/30 08:33:50;;;;;;;4.03;3.23;;;27.00;99.90;;;;;;5000594;28;20486;-81
2022/06/30 08:36:17;;;;;;;5.60;3.50;;;27.20;99.90;;;;;;4998265;28;20462;-79
2022/06/30 08:38:44;;;;;;;4.00;3.30;;;27.30;99.90;;;;;;4996300;28;20598;-81
2022/06/30 08:43:59;;;;;;;4.83;3.33;;;27.60;99.90;;;;;;4986690;28;20425;-79
2022/06/30 08:46:27;;;;;;;3.87;2.40;;;27.80;99.90;;;;;;4996924;28;20485;-80
2022/06/30 08:48:54;;;;;;;4.13;2.80;;;28.00;99.90;;;;;;4995776;28;20585;-82
2022/06/30 08:51:22;;;;;;;3.90;2.90;;;28.10;99.90;;;;;;4996739;28;20486;-79
2022/06/30 08:53:53;;;;;;;5.53;2.97;;;28.40;99.90;;;;;;4995887;28;20451;-81
2022/06/30 08:56:21;;;;;;;4.40;2.50;;;28.50;99.90;;;;;;4997095;28;20545;-80
2022/06/30 08:58:50;;;;;;;6.37;3.00;;;28.70;99.90;;;;;;4996925;28;20562;-82
2022/06/30 09:01:18;;;;;;;4.97;2.67;;;28.80;99.90;;;;;;4996976;28;20461;-81
2022/06/30 09:03:45;;;;;;;3.67;2.63;;;28.90;99.90;;;;;;4995727;28;20514;-79
2022/06/30 09:06:13;;;;;;;4.50;2.93;;;29.00;99.90;;;;;;4996542;28;20535;-79
2022/06/30 09:08:40;;;;;;;4.50;3.00;;;29.20;99.90;;;;;;4996215;28;20470;-80
2022/06/30 09:11:09;;;;;;;4.37;2.77;;;29.30;99.90;;;;;;5066207;23;20495;-82
2022/06/30 09:13:43;;;;;;;4.80;2.77;;;29.40;99.90;;;;;;5056773;28;20516;-82
2022/06/30 09:16:11;;;;;;;5.13;3.10;;;29.60;99.90;;;;;;5053832;28;20533;-82
2022/06/30 09:18:39;;;;;;;3.90;2.70;;;29.90;99.90;;;;;;5058472;28;20520;-82
2022/06/30 09:21:16;;;;;;;4.33;2.50;;;30.00;99.90;;;;;;5052925;28;20555;-81
2022/06/30 09:23:44;;;;;;;4.80;2.83;;;30.20;99.90;;;;;;5043383;28;20827;-82
2022/06/30 09:26:18;;;;;;;4.20;2.33;;;30.30;99.90;;;;;;5040897;28;20976;-82
2022/06/30 09:28:46;;;;;;;6.57;2.63;;;30.60;99.90;;;;;;5042078;28;20456;-81
2022/06/30 09:31:15;;;;;;;4.23;2.63;;;30.60;99.90;;;;;;5035610;28;20523;-81
2022/06/30 09:33:47;;;;;;;3.67;2.33;;;30.60;99.90;;;;;;5051026;28;20563;-82
2022/06/30 09:36:22;;;;;;;4.70;2.30;;;30.70;99.90;;;;;;5056795;28;20825;-82
2022/06/30 09:39:00;;;;;;;4.30;2.57;;;30.80;99.90;;;;;;5032172;28;20554;-81
2022/06/30 09:41:28;;;;;;;3.70;2.50;;;31.00;99.90;;;;;;5033406;28;20876;-82
2022/06/30 09:43:55;;;;;;;5.33;2.97;;;30.90;99.90;;;;;;5034097;28;20843;-81
2022/06/30 09:46:22;;;;;;;3.70;2.57;;;31.10;99.90;;;;;;5034271;28;20536;-82
2022/06/30 09:48:51;;;;;;;4.00;2.40;;;31.30;99.90;;;;;;5035839;28;20465;-81
2022/06/30 09:51:18;;;;;;;3.13;2.33;;;31.40;99.90;;;;;;5040384;28;20495;-82
2022/06/30 09:54:06;;;;;;;4.93;2.40;;;31.60;99.90;;;;;;5044433;28;20448;-82
2022/06/30 09:56:33;;;;;;;3.40;2.43;;;31.70;99.90;;;;;;5039368;28;20965;-81
2022/06/30 09:58:59;;;;;;;3.60;1.80;;;31.70;94.00;;;;;;5037623;28;20488;-80
2022/06/30 10:01:26;;;;;;;3.20;2.00;;;31.90;98.20;;;;;;5035397;28;20481;-82
2022/06/30 10:04:08;;;;;;;4.50;2.60;;;32.00;93.40;;;;;;5050645;28;20487;-82
2022/06/30 10:06:35;;;;;;;6.37;3.00;;;31.90;90.30;;;;;;5038300;28;20456;-82
2022/06/30 10:09:02;;;;;;;3.70;2.03;;;32.10;92.70;;;;;;5037532;28;20481;-80
2022/06/30 10:11:29;;;;;;;2.60;1.50;;;32.20;92.10;;;;;;5029904;28;20532;-82
2022/06/30 10:13:56;;;;;;;3.70;1.87;;;32.30;94.20;;;;;;5041613;28;21032;-82
2022/06/30 10:16:27;;;;;;;5.33;2.30;;;32.40;92.80;;;;;;5054570;28;20517;-81
2022/06/30 10:18:54;;;;;;;5.50;1.90;;;32.40;94.50;;;;;;5046334;28;20489;-82
2022/06/30 10:21:23;;;;;;;3.50;2.17;;;32.50;86.40;;;;;;5040577;28;20504;-81
2022/06/30 10:23:51;;;;;;;5.00;1.90;;;32.70;92.20;;;;;;5035518;28;20556;-81
2022/06/30 10:29:04;;;;;;;4.70;2.53;;;33.20;92.80;;;;;;5052577;28;20494;-83
2022/06/30 10:31:36;;;;;;;6.17;2.50;;;33.30;95.10;;;;;;5034296;28;20524;-82
2022/06/30 10:34:13;;;;;;;3.20;1.93;;;33.10;92.80;;;;;;5034818;28;20548;-82
2022/06/30 10:36:45;;;;;;;3.57;2.10;;;32.90;87.90;;;;;;5033921;28;20495;-80
2022/06/30 10:39:23;;;;;;;4.70;2.07;;;32.30;88.00;;;;;;5034509;28;20536;-81
2022/06/30 10:41:50;;;;;;;5.00;2.03;;;32.20;83.50;;;;;;5040309;28;20452;-82
2022/06/30 10:44:24;;;;;;;3.53;1.97;;;32.60;91.90;;;;;;5040885;28;20452;-82
2022/06/30 10:47:09;;;;;;;6.10;2.40;;;32.80;90.70;;;;;;5041918;28;20459;-80
2022/06/30 10:49:52;;;;;;;3.57;2.10;;;33.20;93.60;;;;;;5041492;28;20459;-82
2022/06/30 10:52:23;;;;;;;4.23;2.33;;;33.20;91.80;;;;;;5036812;28;20635;-82
2022/06/30 10:54:58;;;;;;;3.90;2.27;;;33.10;87.70;;;;;;5037639;28;20968;-82
2022/06/30 10:57:25;;;;;;;3.63;2.17;;;32.60;89.10;;;;;;5044419;28;20480;-82
2022/06/30 10:59:52;;;;;;;3.33;2.30;;;32.30;87.70;;;;;;5041850;28;20540;-81
2022/06/30 11:02:25;;;;;;;6.53;2.23;;;31.90;87.60;;;;;;5039759;28;20529;-81
2022/06/30 11:05:22;;;;;;;3.63;1.90;;;31.30;85.20;;;;;;5045195;28;20451;-81
2022/06/30 11:07:51;;;;;;;4.00;2.50;;;30.70;87.40;;;;;;5041089;28;21002;-83
2022/06/30 11:10:18;;;;;;;6.23;2.07;;;30.60;89.60;;;;;;5040744;28;20508;-83
2022/06/30 11:12:59;;;;;;;3.67;2.30;;;30.70;94.00;;;;;;5040614;28;21027;-83
2022/06/30 11:15:52;;;;;;;4.77;2.13;;;31.30;94.90;;;;;;5041721;28;20487;-83
2022/06/30 11:18:20;;;;;;;3.47;2.00;;;32.10;88.60;;;;;;5041117;28;20890;-82
2022/06/30 11:20:46;;;;;;;3.77;2.40;;;32.80;93.10;;;;;;5040472;28;20476;-83
2022/06/30 11:23:15;;;;;;;4.03;2.00;;;33.40;92.50;;;;;;5038027;28;20503;-82
2022/06/30 11:28:31;;;;;;;3.23;1.70;;;34.00;90.70;;;;;;5041956;28;20504;-82
2022/06/30 11:30:58;;;;;;;3.73;1.93;;;34.60;83.10;;;;;;5041784;28;20484;-82
2022/06/30 11:33:24;;;;;;;4.97;1.87;;;34.80;78.60;;;;;;5043007;28;20953;-83
2022/06/30 11:36:09;;;;;;;5.13;1.83;;;35.10;81.40;;;;;;5045513;28;20487;-83
2022/06/30 11:38:38;;;;;;;6.53;2.13;;;35.50;71.30;;;;;;5048649;28;20525;-83
2022/06/30 11:43:55;;;;;;;3.60;1.93;;;36.00;71.60;;;;;;5045095;28;21025;-83
2022/06/30 11:46:22;;;;;;;3.40;2.23;;;36.40;74.20;;;;;;5043819;28;20473;-81
2022/06/30 11:48:49;;;;;;;4.23;2.00;;;36.60;77.00;;;;;;5043346;28;20479;-84
2022/06/30 11:51:16;;;;;;;3.80;2.10;;;36.50;74.80;;;;;;5053112;28;20487;-83
2022/06/30 11:53:45;;;;;;;4.83;2.20;;;36.50;68.50;;;;;;5042150;28;20467;-84
2022/06/30 11:56:12;;;;;;;5.50;2.30;;;36.30;68.10;;;;;;5039834;28;20532;-83
2022/06/30 11:58:40;;;;;;;5.60;2.57;;;36.40;75.90;;;;;;5040673;28;20460;-83
2022/06/30 12:01:17;;;;;;;4.07;2.00;;;36.40;64.60;;;;;;5040140;28;20496;-83
2022/06/30 12:03:47;;;;;;;4.30;2.07;;;36.40;72.80;;;;;;5039783;28;20502;-83
2022/06/30 12:06:17;;;;;;;4.73;2.57;;;36.40;68.80;;;;;;5047393;28;20958;-83
2022/06/30 12:08:51;;;;;;;4.00;2.00;;;36.50;61.00;;;;;;5040595;28;20475;-83
2022/06/30 12:11:18;;;;;;;2.87;1.83;;;36.50;74.20;;;;;;5040579;28;20484;-82
2022/06/30 12:13:47;;;;;;;3.17;1.83;;;36.50;67.60;;;;;;5040588;28;20441;-83
2022/06/30 12:16:18;;;;;;;3.70;1.83;;;36.50;66.90;;;;;;5054986;28;20430;-81
2022/06/30 12:18:45;;;;;;;6.67;1.90;;;36.50;58.60;;;;;;5045109;28;20552;-83
2022/06/30 12:21:12;;;;;;;2.80;1.70;;;36.30;65.70;;;;;;5038710;28;20754;-82
2022/06/30 12:23:39;;;;;;;7.20;1.93;;;36.40;61.90;;;;;;5037278;28;20493;-83
2022/06/30 12:26:08;;;;;;;4.57;2.13;;;36.60;65.40;;;;;;5039920;28;20464;-83
2022/06/30 12:28:46;;;;;;;3.37;1.80;;;36.50;59.80;;;;;;5043969;28;20472;-83
2022/06/30 12:31:23;;;;;;;3.60;2.03;;;36.80;59.30;;;;;;5038922;28;20523;-82
2022/06/30 12:33:54;;;;;;;3.50;1.53;;;36.90;65.70;;;;;;5037931;28;20449;-83
2022/06/30 12:36:25;;;;;;;4.50;2.07;;;36.90;64.60;;;;;;5039573;28;20453;-83
2022/06/30 12:38:52;;;;;;;5.77;2.20;;;36.90;65.10;;;;;;5039384;28;20546;-82
2022/06/30 12:41:22;;;;;;;4.00;1.80;;;37.20;61.60;;;;;;5038686;28;20464;-82
2022/06/30 12:43:52;;;;;;;3.40;2.00;;;37.40;65.30;;;;;;5045492;28;20491;-81
2022/06/30 12:46:21;;;;;;;7.83;2.90;;;37.50;61.00;;;;;;5058970;28;20452;-82
2022/06/30 12:48:50;;;;;;;4.40;2.00;;;37.60;59.10;;;;;;5056990;28;20444;-82
2022/06/30 12:51:39;;;;;;;4.80;2.20;;;37.80;63.10;;;;;;5055153;28;20494;-82
2022/06/30 12:54:11;;;;;;;4.13;2.40;;;37.60;59.20;;;;;;5056005;28;20464;-82
2022/06/30 12:56:42;;;;;;;7.30;2.73;;;37.10;61.40;;;;;;5055417;28;20455;-82
2022/06/30 12:59:17;;;;;;;3.67;1.80;;;37.20;62.50;;;;;;5025001;28;20900;-81
2022/06/30 13:01:46;;;;;;;4.30;2.20;;;37.40;62.00;;;;;;5048920;28;20990;-81
2022/06/30 13:04:20;;;;;;;4.23;2.20;;;37.70;63.00;;;;;;5019295;28;20450;-82
2022/06/30 13:06:49;;;;;;;6.13;3.00;;;37.70;59.80;;;;;;5027671;28;20489;-80
2022/06/30 13:09:19;;;;;;;3.50;2.00;;;37.90;63.10;;;;;;5042313;28;21040;-81
2022/06/30 13:11:52;;;;;;;3.50;2.20;;;37.80;57.10;;;;;;5042812;28;20486;-81